Louis, Missouri
Current Conditions -  °F | °C
As of 6:53 PM on Friday 24 Oct 2014 (Local Time) from KCPS Reporting Station
Clear Clear  
Wind Chill: 65°   Ceiling: Unl
Heat Index: 65°   Visibility: 10mi
Dew Point: 51°   Wind: 5mph
Humidity: 61%   Direction: 160°SSE
Pressure: 30.01"   Gusts: NA
Location:  38.6578°N, 90.2474°W
Report Text: KCPS 242353Z 16004KT 10SM CLR 18/11 A3001 RMK AO2 SLP160 T01830106 10233 20183 55008
Loading
Personal Weather Stations






























Interactive Weather Map
Tropical Storm Tracking
New forecast layout! Learn more

10-Day Weather Forecast

Advertisements
Track Severe Weather on mobile